createdAt,value
2018-08-12T00:01:03.578Z,35.36
2018-08-12T00:02:13.048Z,35.27
2018-08-12T00:03:22.219Z,35.27
2018-08-12T00:04:31.131Z,35.27
2018-08-12T00:05:40.311Z,35.36
2018-08-12T00:06:49.462Z,35.36
2018-08-12T00:07:58.648Z,35.27
2018-08-12T00:09:07.844Z,35.36
2018-08-12T00:10:17.000Z,35.25
2018-08-12T00:11:26.400Z,35.36
2018-08-12T00:12:35.824Z,35.36
2018-08-12T00:13:44.964Z,35.46
2018-08-12T00:14:54.361Z,35.36
2018-08-12T00:16:03.509Z,35.25
2018-08-12T00:17:12.715Z,35.27
2018-08-12T00:18:21.858Z,35.36
2018-08-12T00:19:31.272Z,35.25
2018-08-12T00:20:40.160Z,35.25
2018-08-12T00:21:49.564Z,35.27
2018-08-12T00:22:58.721Z,35.27
2018-08-12T00:24:07.892Z,35.27
2018-08-12T00:25:17.571Z,35.17
2018-08-12T00:26:26.462Z,35.15
2018-08-12T00:27:35.392Z,35.25
2018-08-12T00:28:44.820Z,35.27
2018-08-12T00:29:54.238Z,35.35
2018-08-12T00:31:03.404Z,35.15
2018-08-12T00:32:13.328Z,35.27
2018-08-12T00:33:22.240Z,35.35
2018-08-12T00:34:31.638Z,35.35
2018-08-12T00:35:40.815Z,35.44
2018-08-12T00:36:49.989Z,35.15
2018-08-12T00:37:59.284Z,35.35
2018-08-12T00:39:08.686Z,35.35
2018-08-12T00:40:17.845Z,35.35
2018-08-12T00:41:27.289Z,35.35
2018-08-12T00:42:36.966Z,35.25
2018-08-12T00:43:46.443Z,35.35
2018-08-12T00:44:55.355Z,35.25
2018-08-12T00:46:04.259Z,35.25
2018-08-12T00:47:13.435Z,35.25
2018-08-12T00:48:22.617Z,35.25
2018-08-12T00:49:31.789Z,35.35
2018-08-12T00:50:41.232Z,35.15
2018-08-12T00:51:50.667Z,35.35
2018-08-12T00:52:59.605Z,35.25
2018-08-12T00:54:08.761Z,35.15
2018-08-12T00:55:18.232Z,35.25
2018-08-12T00:56:27.373Z,35.15
2018-08-12T00:57:37.030Z,35.25
2018-08-12T00:58:46.209Z,35.44
2018-08-12T00:59:55.388Z,35.15
2018-08-12T01:01:04.807Z,35.15
2018-08-12T01:02:14.261Z,35.15
2018-08-12T01:03:23.437Z,35.25
2018-08-12T01:04:33.110Z,35.25
2018-08-12T01:05:42.526Z,35.35
2018-08-12T01:06:51.752Z,35.15
2018-08-12T01:08:01.212Z,35.25
2018-08-12T01:09:10.135Z,35.35
2018-08-12T01:10:19.324Z,35.35
2018-08-12T01:11:28.236Z,35.25
2018-08-12T01:12:37.388Z,35.25
2018-08-12T01:13:46.295Z,35.25
2018-08-12T01:14:55.961Z,35.25
2018-08-12T01:16:05.395Z,35.25
2018-08-12T01:17:14.810Z,35.15
2018-08-12T01:18:23.980Z,35.25
2018-08-12T01:19:33.963Z,35.25
2018-08-12T01:20:43.121Z,35.15
2018-08-12T01:21:52.522Z,35.15
2018-08-12T01:23:01.420Z,35.15
2018-08-12T01:24:10.829Z,35.35
2018-08-12T01:25:20.309Z,35.15
2018-08-12T01:26:29.034Z,35.15
2018-08-12T01:27:38.199Z,35.44
2018-08-12T01:28:47.657Z,35.25
2018-08-12T01:29:56.824Z,35.25
2018-08-12T01:31:06.040Z,35.35
2018-08-12T01:32:15.463Z,35.25
2018-08-12T01:33:25.130Z,35.35
2018-08-12T01:34:34.525Z,35.15
2018-08-12T01:35:43.707Z,35.15
2018-08-12T01:36:53.167Z,35.05
2018-08-12T01:38:02.418Z,35.35
2018-08-12T01:39:12.091Z,35.15
2018-08-12T01:40:21.789Z,35.15
2018-08-12T01:41:30.955Z,35.05
2018-08-12T01:42:40.376Z,35.25
2018-08-12T01:43:49.525Z,35.25
2018-08-12T01:44:58.710Z,35.25
2018-08-12T01:46:08.462Z,35.15
2018-08-12T01:47:17.870Z,35.25
2018-08-12T01:48:27.551Z,35.15
2018-08-12T01:49:36.700Z,35.25
2018-08-12T01:50:45.858Z,35.25
2018-08-12T01:51:55.316Z,35.25
2018-08-12T01:53:04.732Z,35.05
2018-08-12T01:54:14.162Z,35.15
2018-08-12T01:55:23.572Z,35.25
2018-08-12T01:56:33.014Z,35.15
2018-08-12T01:57:42.167Z,35.15
2018-08-12T01:58:51.090Z,35.35
2018-08-12T01:59:59.742Z,35.35
2018-08-12T02:01:08.904Z,35.25
2018-08-12T02:02:18.154Z,35.15
2018-08-12T02:03:27.309Z,35.25
2018-08-12T02:04:36.712Z,35.25
2018-08-12T02:05:45.860Z,35.15
2018-08-12T02:06:55.009Z,35.15
2018-08-12T02:08:04.164Z,35.15
2018-08-12T02:09:13.580Z,35.15
2018-08-12T02:10:22.497Z,35.15
2018-08-12T02:11:32.173Z,35.15
2018-08-12T02:12:41.346Z,35.15
2018-08-12T02:13:50.756Z,35.15
2018-08-12T02:14:59.920Z,35.15
2018-08-12T02:16:09.598Z,35.35
2018-08-12T02:17:19.570Z,35.15
2018-08-12T02:18:28.721Z,35.35
2018-08-12T02:19:37.895Z,35.15
2018-08-12T02:20:47.318Z,35.15
2018-08-12T02:21:56.749Z,35.25
2018-08-12T02:23:05.890Z,35.15
2018-08-12T02:24:15.302Z,35.25
2018-08-12T02:25:24.203Z,35.15
2018-08-12T02:26:33.631Z,35.15
2018-08-12T02:27:42.518Z,35.15
2018-08-12T02:28:52.459Z,35.05
2018-08-12T02:30:01.875Z,35.35
2018-08-12T02:31:11.284Z,35.35
2018-08-12T02:32:20.697Z,35.35
2018-08-12T02:33:29.848Z,35.25
2018-08-12T02:34:39.264Z,35.25
2018-08-12T02:35:48.674Z,35.35
2018-08-12T02:36:58.101Z,35.35
2018-08-12T02:38:07.793Z,35.25
2018-08-12T02:39:17.498Z,35.35
2018-08-12T02:40:26.896Z,35.44
2018-08-12T02:41:36.621Z,35.44
2018-08-12T02:42:45.786Z,35.35
2018-08-12T02:43:54.696Z,35.33
2018-08-12T02:45:04.108Z,35.33
2018-08-12T02:46:13.532Z,35.23
2018-08-12T02:47:22.424Z,35.33
2018-08-12T02:48:31.894Z,35.25
2018-08-12T02:49:41.075Z,35.15
2018-08-12T02:50:50.767Z,35.13
2018-08-12T02:52:00.251Z,35.35
2018-08-12T02:53:09.418Z,35.42
2018-08-12T02:54:18.595Z,35.42
2018-08-12T02:55:28.006Z,35.52
2018-08-12T02:56:37.708Z,35.52
2018-08-12T02:57:47.418Z,35.52
2018-08-12T02:58:57.095Z,35.62
2018-08-12T03:00:06.788Z,35.62
2018-08-12T03:01:16.494Z,35.72
2018-08-12T03:02:26.185Z,35.62
2018-08-12T03:03:35.601Z,35.72
2018-08-12T03:04:44.555Z,35.62
2018-08-12T03:05:53.974Z,35.52
2018-08-12T03:07:03.394Z,35.72
2018-08-12T03:08:12.877Z,35.52
2018-08-12T03:09:22.304Z,35.52
2018-08-12T03:10:31.753Z,35.52
2018-08-12T03:11:41.673Z,35.62
2018-08-12T03:12:51.329Z,35.62
2018-08-12T03:14:01.253Z,35.52
2018-08-12T03:15:10.680Z,35.62
2018-08-12T03:16:20.407Z,35.62
2018-08-12T03:17:29.318Z,35.72
2018-08-12T03:18:39.009Z,35.62
2018-08-12T03:19:48.439Z,35.42
2018-08-12T03:20:58.124Z,35.33
2018-08-12T03:22:07.800Z,35.52
2018-08-12T03:23:17.773Z,35.42
2018-08-12T03:24:27.178Z,35.23
2018-08-12T03:25:36.367Z,35.42
2018-08-12T03:26:45.523Z,35.23
2018-08-12T03:27:55.223Z,35.52
2018-08-12T03:29:04.367Z,35.42
2018-08-12T03:30:13.818Z,35.42
2018-08-12T03:31:24.234Z,35.33
2018-08-12T03:32:33.643Z,35.33
2018-08-12T03:33:42.786Z,35.42
2018-08-12T03:34:52.440Z,35.33
2018-08-12T03:36:01.869Z,35.62
2018-08-12T03:37:10.763Z,35.42
2018-08-12T03:38:20.213Z,35.72
2018-08-12T03:39:29.178Z,35.62
2018-08-12T03:40:38.332Z,35.62
2018-08-12T03:41:47.488Z,35.62
2018-08-12T03:42:57.156Z,35.52
2018-08-12T03:44:06.852Z,35.42
2018-08-12T03:45:16.251Z,35.62
2018-08-12T03:46:25.721Z,35.52
2018-08-12T03:47:34.616Z,35.42
2018-08-12T03:48:44.029Z,35.5
2018-08-12T03:49:53.797Z,35.52
2018-08-12T03:51:03.483Z,35.52
2018-08-12T03:52:12.916Z,35.52
2018-08-12T03:53:22.113Z,35.52
2018-08-12T03:54:31.025Z,35.62
2018-08-12T03:55:40.222Z,35.52
2018-08-12T03:56:49.378Z,35.52
2018-08-12T03:57:58.524Z,35.42
2018-08-12T03:59:08.434Z,35.33
2018-08-12T04:00:17.910Z,35.52
2018-08-12T04:01:27.323Z,35.52
2018-08-12T04:02:36.471Z,35.6
2018-08-12T04:03:46.185Z,35.62
2018-08-12T04:04:55.863Z,35.6
2018-08-12T04:06:05.268Z,35.42
2018-08-12T04:07:14.410Z,35.6
2018-08-12T04:08:23.556Z,35.33
2018-08-12T04:09:32.767Z,35.52
2018-08-12T04:10:41.927Z,35.7
2018-08-12T04:11:51.339Z,35.33
2018-08-12T04:13:01.270Z,35.33
2018-08-12T04:14:10.684Z,35.52
2018-08-12T04:15:19.596Z,35.5
2018-08-12T04:16:29.258Z,35.72
2018-08-12T04:17:38.396Z,35.33
2018-08-12T04:18:47.532Z,35.42
2018-08-12T04:19:56.997Z,35.31
2018-08-12T04:21:06.409Z,35.33
2018-08-12T04:22:15.817Z,35.23
2018-08-12T04:23:25.221Z,35.23
2018-08-12T04:24:34.399Z,35.31
2018-08-12T04:25:43.562Z,35.21
2018-08-12T04:26:53.492Z,35.23
2018-08-12T04:28:02.385Z,35.33
2018-08-12T04:29:11.540Z,35.23
2018-08-12T04:30:20.965Z,35.23
2018-08-12T04:31:30.383Z,35.52
2018-08-12T04:32:39.543Z,35.33
2018-08-12T04:33:48.989Z,35.33
2018-08-12T04:34:57.893Z,35.41
2018-08-12T04:36:07.294Z,35.5
2018-08-12T04:37:16.688Z,35.42
2018-08-12T04:38:25.843Z,35.42
2018-08-12T04:39:35.498Z,35.31
2018-08-12T04:40:44.910Z,35.62
2018-08-12T04:41:54.310Z,35.41
2018-08-12T04:43:03.458Z,35.42
2018-08-12T04:44:12.703Z,35.21
2018-08-12T04:45:21.590Z,35.52
2018-08-12T04:46:31.504Z,35.41
2018-08-12T04:47:40.674Z,35.31
2018-08-12T04:48:50.075Z,35.42
2018-08-12T04:49:58.973Z,35.21
2018-08-12T04:51:07.871Z,35.21
2018-08-12T04:52:17.584Z,35.41
2018-08-12T04:53:26.476Z,35.21
2018-08-12T04:54:36.182Z,35.41
2018-08-12T04:55:45.333Z,35.21
2018-08-12T04:56:54.795Z,35.31
2018-08-12T04:58:03.948Z,35.41
2018-08-12T04:59:13.623Z,35.41
2018-08-12T05:00:23.058Z,35.21
2018-08-12T05:01:32.233Z,35.31
2018-08-12T05:02:41.139Z,35.41
2018-08-12T05:03:50.555Z,35.31
2018-08-12T05:04:59.977Z,35.12
2018-08-12T05:06:09.649Z,35.41
2018-08-12T05:07:18.791Z,35.41
2018-08-12T05:08:28.453Z,35.31
2018-08-12T05:09:37.389Z,35.21
2018-08-12T05:10:46.548Z,35.21
2018-08-12T05:11:55.694Z,35.31
2018-08-12T05:13:04.851Z,35.31
2018-08-12T05:14:13.997Z,35.31
2018-08-12T05:15:23.152Z,35.31
2018-08-12T05:16:32.298Z,35.21
2018-08-12T05:17:41.219Z,35.31
2018-08-12T05:18:50.623Z,35.41
2018-08-12T05:20:00.277Z,35.21
2018-08-12T05:21:09.175Z,35.5
2018-08-12T05:22:18.848Z,35.5
2018-08-12T05:23:28.553Z,35.41
2018-08-12T05:24:37.701Z,35.41
2018-08-12T05:25:47.118Z,35.31
2018-08-12T05:26:56.279Z,35.31
2018-08-12T05:28:05.445Z,35.31
2018-08-12T05:29:14.936Z,35.31
2018-08-12T05:30:24.083Z,35.21
2018-08-12T05:31:33.918Z,35.31
2018-08-12T05:32:42.806Z,35.21
2018-08-12T05:33:51.692Z,35.21
2018-08-12T05:35:00.843Z,35.31
2018-08-12T05:36:10.648Z,35.31
2018-08-12T05:37:20.507Z,35.12
2018-08-12T05:38:29.393Z,35.21
2018-08-12T05:39:38.814Z,35.31
2018-08-12T05:40:47.975Z,35.31
2018-08-12T05:41:57.399Z,35.31
2018-08-12T05:43:07.821Z,35.31
2018-08-12T05:44:17.243Z,35.21
2018-08-12T05:45:26.603Z,35.21
2018-08-12T05:46:36.290Z,35.31
2018-08-12T05:47:45.445Z,35.21
2018-08-12T05:48:55.616Z,35.31
2018-08-12T05:50:05.543Z,35.31
2018-08-12T05:51:14.693Z,35.31
2018-08-12T05:52:23.228Z,35.31
2018-08-12T05:53:32.432Z,35.31
2018-08-12T05:54:41.851Z,35.31
2018-08-12T05:55:51.275Z,35.31
2018-08-12T05:57:00.451Z,35.31
2018-08-12T05:58:10.169Z,35.41
2018-08-12T05:59:19.591Z,35.31
2018-08-12T06:00:28.995Z,35.41
2018-08-12T06:01:38.672Z,35.31
2018-08-12T06:02:47.641Z,35.12
2018-08-12T06:03:58.029Z,35.21
2018-08-12T06:05:07.441Z,35.12
2018-08-12T06:06:16.354Z,35.12
2018-08-12T06:07:26.077Z,35.21
2018-08-12T06:08:35.228Z,35.31
2018-08-12T06:09:44.421Z,35.21
2018-08-12T06:10:53.588Z,35.12
2018-08-12T06:12:02.218Z,35.21
2018-08-12T06:13:11.624Z,35.21
2018-08-12T06:14:20.504Z,35.12
2018-08-12T06:15:29.154Z,35.12
2018-08-12T06:16:38.055Z,35.31
2018-08-12T06:17:47.970Z,35.31
2018-08-12T06:18:57.133Z,35.12
2018-08-12T06:20:06.782Z,35.12
2018-08-12T06:21:16.435Z,35.21
2018-08-12T06:22:26.398Z,35.5
2018-08-12T06:23:35.819Z,35.21
2018-08-12T06:24:45.479Z,35.41
2018-08-12T06:25:54.887Z,35.41
2018-08-12T06:27:04.295Z,35.21
2018-08-12T06:28:13.694Z,35.21
2018-08-12T06:29:22.588Z,35.31
2018-08-12T06:30:31.489Z,35.5
2018-08-12T06:31:40.956Z,35.5
2018-08-12T06:32:50.635Z,35.6
2018-08-12T06:34:00.356Z,35.41
2018-08-12T06:35:09.773Z,35.5
2018-08-12T06:36:19.692Z,35.6
2018-08-12T06:37:29.161Z,35.5
2018-08-12T06:38:38.341Z,35.5
2018-08-12T06:39:47.525Z,35.5
2018-08-12T06:40:57.087Z,35.7
2018-08-12T06:42:06.748Z,35.5
2018-08-12T06:43:16.155Z,35.7
2018-08-12T06:44:25.322Z,35.41
2018-08-12T06:45:33.954Z,35.5
2018-08-12T06:46:43.463Z,35.5
2018-08-12T06:47:52.891Z,35.5
2018-08-12T06:49:02.036Z,35.5
2018-08-12T06:50:11.229Z,35.5
2018-08-12T06:51:20.893Z,35.5
2018-08-12T06:52:30.566Z,35.5
2018-08-12T06:53:39.730Z,35.6
2018-08-12T06:54:49.227Z,35.8
2018-08-12T06:55:58.643Z,35.5
2018-08-12T06:57:07.806Z,35.5
2018-08-12T06:58:16.688Z,35.6
2018-08-12T06:59:26.376Z,35.5
2018-08-12T07:00:36.490Z,35.7
2018-08-12T07:01:45.666Z,35.6
2018-08-12T07:02:54.832Z,35.6
2018-08-12T07:04:04.495Z,35.7
2018-08-12T07:05:13.915Z,35.6
2018-08-12T07:06:23.627Z,35.6
2018-08-12T07:07:32.758Z,35.31
2018-08-12T07:08:41.898Z,35.41
2018-08-12T07:09:50.869Z,35.41
2018-08-12T07:11:00.552Z,35.31
2018-08-12T07:12:09.959Z,35.41
2018-08-12T07:13:19.128Z,35.31
2018-08-12T07:14:28.575Z,35.12
2018-08-12T07:15:37.749Z,35.31
2018-08-12T07:16:47.207Z,35.21
2018-08-12T07:17:56.863Z,35.31
2018-08-12T07:19:05.774Z,35.21
2018-08-12T07:20:14.672Z,35.31
2018-08-12T07:21:23.812Z,35.31
2018-08-12T07:22:33.236Z,35.41
2018-08-12T07:23:42.642Z,35.12
2018-08-12T07:24:51.877Z,35.12
2018-08-12T07:26:01.342Z,35.12
2018-08-12T07:27:10.766Z,35.21
2018-08-12T07:28:19.934Z,35.21
2018-08-12T07:29:29.089Z,35.31
2018-08-12T07:30:38.025Z,35.31
2018-08-12T07:31:47.168Z,35.12
2018-08-12T07:32:56.442Z,35.12
2018-08-12T07:34:06.479Z,35.12
2018-08-12T07:35:15.640Z,35.23
2018-08-12T07:36:25.551Z,35.23
2018-08-12T07:37:34.950Z,35.33
2018-08-12T07:38:44.520Z,35.33
2018-08-12T07:39:54.010Z,35.33
2018-08-12T07:41:04.342Z,35.23
2018-08-12T07:42:13.511Z,35.42
2018-08-12T07:43:23.454Z,35.23
2018-08-12T07:44:32.877Z,34.94
2018-08-12T07:45:42.024Z,35.33
2018-08-12T07:46:51.695Z,34.84
2018-08-12T07:48:00.838Z,34.94
2018-08-12T07:49:10.255Z,35.33
2018-08-12T07:50:19.405Z,34.94
2018-08-12T07:51:29.085Z,34.84
2018-08-12T07:52:38.025Z,34.84
2018-08-12T07:53:47.511Z,34.84
2018-08-12T07:54:56.911Z,34.65
2018-08-12T07:56:05.794Z,34.65
2018-08-12T07:57:15.520Z,34.65
2018-08-12T07:58:24.684Z,34.84
2018-08-12T07:59:34.416Z,34.65
2018-08-12T08:00:43.561Z,34.75
2018-08-12T08:01:52.727Z,34.75
2018-08-12T08:03:01.899Z,34.75
2018-08-12T08:04:11.059Z,34.65
2018-08-12T08:05:20.471Z,34.75
2018-08-12T08:06:29.916Z,34.77
2018-08-12T08:07:39.329Z,34.65
2018-08-12T08:08:49.015Z,34.65
2018-08-12T08:09:59.220Z,34.65
2018-08-12T08:11:08.645Z,34.57
2018-08-12T08:12:18.069Z,34.57
2018-08-12T08:13:27.568Z,34.65
2018-08-12T08:14:36.467Z,34.65
2018-08-12T08:15:46.139Z,34.57
2018-08-12T08:16:55.034Z,34.65
2018-08-12T08:18:04.472Z,34.57
2018-08-12T08:19:14.113Z,34.57
